createdAt,value
2023-06-18T00:00:14.051Z,61.24
2023-06-18T00:02:41.143Z,64.94
2023-06-18T00:05:08.751Z,68.16
2023-06-18T00:07:35.900Z,67.31
2023-06-18T00:10:04.702Z,65.55
2023-06-18T00:12:31.627Z,64.06
2023-06-18T00:14:58.969Z,63.13
2023-06-18T00:17:26.897Z,62.02
2023-06-18T00:19:53.925Z,61.24
2023-06-18T00:22:23.117Z,60.38
2023-06-18T00:24:54.554Z,58.06
2023-06-18T00:27:28.032Z,56.65
2023-06-18T00:30:08.786Z,57.08
2023-06-18T00:32:50.428Z,57.86
2023-06-18T00:35:24.108Z,58.80
2023-06-18T00:37:51.342Z,60.16
2023-06-18T00:40:18.690Z,63.77
2023-06-18T00:42:46.246Z,66.72
2023-06-18T00:45:13.915Z,65.77
2023-06-18T00:47:45.951Z,64.16
2023-06-18T00:50:20.093Z,62.64
2023-06-18T00:52:49.436Z,61.54
2023-06-18T00:55:22.259Z,60.57
2023-06-18T00:58:01.040Z,57.94
2023-06-18T01:00:30.076Z,56.37
2023-06-18T01:02:58.161Z,57.29
2023-06-18T01:05:26.683Z,58.50
2023-06-18T01:07:54.383Z,59.60
2023-06-18T01:10:22.726Z,60.47
2023-06-18T01:12:50.653Z,63.96
2023-06-18T01:15:19.775Z,67.13
2023-06-18T01:17:50.055Z,66.35
2023-06-18T01:20:20.293Z,65.08
2023-06-18T01:22:50.164Z,63.80
2023-06-18T01:25:19.621Z,62.73
2023-06-18T01:27:48.088Z,61.73
2023-06-18T01:30:16.290Z,61.52
2023-06-18T01:32:43.513Z,61.16
2023-06-18T01:35:17.584Z,60.56
2023-06-18T01:38:03.359Z,58.07
2023-06-18T01:40:35.930Z,56.69
2023-06-18T01:43:44.247Z,57.74
2023-06-18T01:46:15.173Z,58.34
2023-06-18T01:48:53.893Z,59.74
2023-06-18T01:51:22.283Z,60.68
2023-06-18T01:53:52.800Z,64.60
2023-06-18T01:56:21.053Z,67.90
2023-06-18T01:58:48.545Z,66.94
2023-06-18T02:01:16.085Z,65.13
2023-06-18T02:03:43.554Z,63.67
2023-06-18T02:06:11.127Z,62.64
2023-06-18T02:08:38.147Z,61.83
2023-06-18T02:11:05.330Z,61.29
2023-06-18T02:13:32.386Z,61.14
2023-06-18T02:15:59.513Z,60.36
2023-06-18T02:18:26.937Z,58.18
2023-06-18T02:20:54.244Z,56.92
2023-06-18T02:23:21.335Z,58.22
2023-06-18T02:25:49.492Z,59.78
2023-06-18T02:28:17.163Z,60.93
2023-06-18T02:30:44.736Z,64.34
2023-06-18T02:33:12.414Z,67.29
2023-06-18T02:35:39.575Z,66.31
2023-06-18T02:38:06.684Z,64.93
2023-06-18T02:40:33.852Z,63.77
2023-06-18T02:43:00.769Z,62.80
2023-06-18T02:45:27.815Z,62.01
2023-06-18T02:47:55.211Z,61.55
2023-06-18T02:50:22.818Z,61.13
2023-06-18T02:52:50.223Z,60.67
2023-06-18T02:55:17.765Z,60.11
2023-06-18T02:57:45.306Z,57.81
2023-06-18T03:00:14.419Z,57.11
2023-06-18T03:02:42.847Z,58.29
2023-06-18T03:05:11.010Z,59.48
2023-06-18T03:07:38.607Z,60.29
2023-06-18T03:10:07.073Z,63.83
2023-06-18T03:12:34.134Z,67.28
2023-06-18T03:15:01.071Z,66.35
2023-06-18T03:17:29.284Z,64.54
2023-06-18T03:19:56.385Z,63.36
2023-06-18T03:22:23.537Z,62.62
2023-06-18T03:24:51.150Z,61.89
2023-06-18T03:27:18.237Z,61.47
2023-06-18T03:29:45.794Z,60.78
2023-06-18T03:32:12.863Z,58.50
2023-06-18T03:34:43.972Z,56.77
2023-06-18T03:37:11.031Z,57.46
2023-06-18T03:39:38.173Z,58.92
2023-06-18T03:42:06.115Z,60.22
2023-06-18T03:44:33.004Z,64.14
2023-06-18T03:47:00.663Z,67.75
2023-06-18T03:49:27.590Z,66.87
2023-06-18T03:51:54.615Z,65.53
2023-06-18T03:54:21.904Z,64.26
2023-06-18T03:56:49.139Z,63.57
2023-06-18T03:59:16.055Z,62.37
2023-06-18T04:01:43.882Z,61.82
2023-06-18T04:04:10.793Z,61.00
2023-06-18T04:06:37.722Z,60.50
2023-06-18T04:09:04.971Z,60.26
2023-06-18T04:11:32.021Z,60.41
2023-06-18T04:13:59.886Z,60.03
2023-06-18T04:16:27.057Z,59.74
2023-06-18T04:18:54.321Z,57.35
2023-06-18T04:21:21.330Z,56.32
2023-06-18T04:23:48.267Z,57.33
2023-06-18T04:26:15.409Z,58.42
2023-06-18T04:28:42.355Z,59.59
2023-06-18T04:31:09.405Z,63.27
2023-06-18T04:33:36.452Z,66.34
2023-06-18T04:36:04.017Z,65.95
2023-06-18T04:38:31.057Z,64.88
2023-06-18T04:40:58.143Z,63.51
2023-06-18T04:43:25.372Z,62.24
2023-06-18T04:45:53.719Z,61.15
2023-06-18T04:48:21.226Z,60.60
2023-06-18T04:50:48.217Z,60.02
2023-06-18T04:53:15.370Z,57.98
2023-06-18T04:55:43.000Z,56.58
2023-06-18T04:58:09.864Z,57.17
2023-06-18T05:00:36.820Z,58.46
2023-06-18T05:03:05.991Z,59.90
2023-06-18T05:05:34.182Z,63.44
2023-06-18T05:08:01.221Z,67.38
2023-06-18T05:10:33.603Z,66.25
2023-06-18T05:13:05.099Z,64.52
2023-06-18T05:15:38.868Z,62.50
2023-06-18T05:18:10.377Z,61.32
2023-06-18T05:20:37.686Z,58.00
2023-06-18T05:23:04.684Z,56.23
2023-06-18T05:25:31.740Z,56.96
2023-06-18T05:27:58.917Z,57.58
2023-06-18T05:30:26.092Z,58.43
2023-06-18T05:32:53.407Z,60.29
2023-06-18T05:35:20.336Z,63.42
2023-06-18T05:37:47.177Z,65.28
2023-06-18T05:40:14.218Z,63.49
2023-06-18T05:42:41.378Z,60.98
2023-06-18T05:45:09.487Z,60.10
2023-06-18T05:47:36.746Z,56.17
2023-06-18T05:50:04.135Z,54.15
2023-06-18T05:52:31.327Z,54.13
2023-06-18T05:54:58.554Z,54.78
2023-06-18T05:57:25.725Z,56.18
2023-06-18T05:59:52.874Z,56.96
2023-06-18T06:02:19.886Z,58.03
2023-06-18T06:04:47.183Z,58.43
2023-06-18T06:07:14.278Z,58.66
2023-06-18T06:09:41.630Z,58.88
2023-06-18T06:12:09.576Z,58.82
2023-06-18T06:14:36.550Z,58.72
2023-06-18T06:17:03.996Z,58.92
2023-06-18T06:19:31.080Z,58.46
2023-06-18T06:21:58.318Z,57.84
2023-06-18T06:24:25.185Z,58.01
2023-06-18T06:26:52.751Z,58.29
2023-06-18T06:29:19.633Z,58.45
2023-06-18T06:31:46.679Z,58.43
2023-06-18T06:34:13.966Z,58.21
2023-06-18T06:36:41.378Z,56.80
2023-06-18T06:39:08.524Z,55.61
2023-06-18T06:41:35.984Z,56.19
2023-06-18T06:44:06.995Z,56.97
2023-06-18T06:46:34.118Z,56.79
2023-06-18T06:49:01.416Z,57.63
2023-06-18T06:51:28.368Z,56.73
2023-06-18T06:53:55.618Z,56.60
2023-06-18T06:56:22.917Z,55.26
2023-06-18T06:58:51.418Z,55.34
2023-06-18T07:01:23.178Z,54.88
2023-06-18T07:03:50.602Z,54.44
2023-06-18T07:06:17.808Z,54.54
2023-06-18T07:08:45.154Z,54.64
2023-06-18T07:11:12.674Z,54.20
2023-06-18T07:13:40.261Z,54.02
2023-06-18T07:16:07.406Z,53.29
2023-06-18T07:18:34.590Z,53.40
2023-06-18T07:21:02.158Z,52.22
2023-06-18T07:23:29.332Z,53.04
2023-06-18T07:25:56.725Z,52.78
2023-06-18T07:28:24.086Z,51.34
2023-06-18T07:30:51.071Z,50.92
2023-06-18T07:33:18.073Z,51.26
2023-06-18T07:35:45.119Z,50.62
2023-06-18T07:38:12.190Z,50.07
2023-06-18T07:40:40.237Z,50.41
2023-06-18T07:43:07.271Z,48.83
2023-06-18T07:45:35.361Z,49.27
2023-06-18T07:48:02.943Z,48.43
2023-06-18T07:50:30.194Z,49.13
2023-06-18T07:52:57.308Z,48.29
2023-06-18T07:55:24.625Z,47.50
2023-06-18T07:57:51.963Z,47.74
2023-06-18T08:00:19.778Z,49.21
2023-06-18T08:02:47.787Z,49.14
2023-06-18T08:05:14.862Z,47.65
2023-06-18T08:07:41.966Z,47.12
2023-06-18T08:10:10.031Z,47.09
2023-06-18T08:12:37.283Z,47.40
2023-06-18T08:15:04.802Z,46.86
2023-06-18T08:17:31.799Z,47.68
2023-06-18T08:19:58.685Z,47.99
2023-06-18T08:22:27.558Z,47.48
2023-06-18T08:24:54.756Z,47.24
2023-06-18T08:27:22.071Z,46.70
2023-06-18T08:29:49.156Z,45.85
2023-06-18T08:32:16.377Z,45.79
2023-06-18T08:34:47.980Z,45.14
2023-06-18T08:37:15.245Z,45.51
2023-06-18T08:39:42.355Z,45.85
2023-06-18T08:42:10.400Z,45.86
2023-06-18T08:44:37.802Z,46.23
2023-06-18T08:47:05.885Z,46.46
2023-06-18T08:49:34.034Z,46.76
2023-06-18T08:52:04.071Z,48.15
2023-06-18T08:54:35.712Z,48.38
2023-06-18T08:57:29.152Z,47.34
2023-06-18T08:59:58.877Z,46.08
2023-06-18T09:02:27.460Z,45.49
2023-06-18T09:04:55.597Z,45.67
2023-06-18T09:07:26.173Z,46.62
2023-06-18T09:09:53.655Z,46.43
2023-06-18T09:12:21.234Z,45.69
2023-06-18T09:14:48.612Z,46.13
2023-06-18T09:17:17.606Z,45.70
2023-06-18T09:19:45.426Z,45.23
2023-06-18T09:22:18.064Z,43.88
2023-06-18T09:24:45.715Z,44.63
2023-06-18T09:27:13.162Z,44.11
2023-06-18T09:29:42.853Z,44.76
2023-06-18T09:32:15.713Z,44.60
2023-06-18T09:34:44.756Z,44.93
2023-06-18T09:37:15.537Z,43.62
2023-06-18T09:39:42.486Z,44.31
2023-06-18T09:42:12.828Z,42.86
2023-06-18T09:44:41.014Z,41.42
2023-06-18T09:47:13.978Z,40.88
2023-06-18T09:49:44.100Z,41.19
2023-06-18T09:52:11.742Z,41.17
2023-06-18T09:54:41.312Z,41.06
2023-06-18T09:57:10.259Z,41.01
2023-06-18T09:59:38.407Z,39.69
2023-06-18T10:02:14.489Z,40.07
2023-06-18T10:04:41.957Z,39.82
2023-06-18T10:07:18.187Z,40.74
2023-06-18T10:09:47.672Z,41.07
2023-06-18T10:12:19.389Z,42.22
2023-06-18T10:14:47.849Z,41.98
2023-06-18T10:17:33.108Z,41.40
2023-06-18T10:20:10.844Z,40.98
2023-06-18T15:08:42.547Z,43.90
2023-06-18T15:11:09.693Z,43.54
2023-06-18T15:13:36.740Z,43.61
2023-06-18T15:16:04.296Z,43.48
2023-06-18T15:18:42.091Z,43.15
2023-06-18T15:21:09.409Z,43.27
2023-06-18T15:23:36.496Z,43.20
2023-06-18T15:26:03.764Z,43.36
2023-06-18T15:28:30.919Z,43.74
2023-06-18T15:30:58.049Z,43.55
2023-06-18T15:33:25.383Z,44.09
2023-06-18T15:35:54.715Z,44.36
2023-06-18T15:38:23.082Z,44.55
2023-06-18T15:40:50.003Z,44.47
2023-06-18T15:43:17.872Z,44.58
2023-06-18T15:45:45.438Z,44.78
2023-06-18T15:48:17.332Z,45.12
2023-06-18T15:50:44.570Z,45.34
2023-06-18T15:53:19.126Z,45.57
2023-06-18T15:55:48.981Z,45.36
2023-06-18T15:58:18.224Z,45.42
2023-06-18T16:00:46.180Z,45.09
2023-06-18T16:03:13.636Z,45.31
2023-06-18T16:05:41.221Z,45.33
2023-06-18T16:08:09.701Z,45.06
2023-06-18T16:10:38.550Z,45.49
2023-06-18T16:13:07.445Z,44.55
2023-06-18T16:15:35.213Z,44.46
2023-06-18T16:18:06.841Z,44.76
2023-06-18T16:20:34.927Z,45.08
2023-06-18T16:23:02.994Z,45.49
2023-06-18T16:25:30.694Z,44.92
2023-06-18T16:28:01.975Z,44.91
2023-06-18T16:30:30.321Z,45.11
2023-06-18T16:33:00.264Z,44.93
2023-06-18T16:35:32.503Z,45.40
2023-06-18T16:38:01.399Z,45.48
2023-06-18T16:40:28.802Z,44.74
2023-06-18T16:42:56.115Z,44.43
2023-06-18T16:45:23.796Z,44.35
2023-06-18T16:47:51.433Z,44.37
2023-06-18T16:50:19.080Z,44.52
2023-06-18T16:52:46.432Z,44.47
2023-06-18T16:55:13.688Z,44.58
2023-06-18T16:57:41.708Z,44.74
2023-06-18T17:00:09.499Z,44.95
2023-06-18T17:02:37.438Z,45.04
2023-06-18T17:05:06.046Z,45.23
2023-06-18T17:07:33.581Z,45.50
2023-06-18T17:10:01.215Z,45.54
2023-06-18T17:12:28.332Z,45.46
2023-06-18T17:15:01.269Z,45.53
2023-06-18T17:17:29.151Z,45.74
2023-06-18T17:19:56.531Z,45.80
2023-06-18T17:22:23.801Z,46.02
2023-06-18T17:24:51.202Z,46.06
2023-06-18T17:27:18.992Z,46.26
2023-06-18T17:29:47.078Z,46.56
2023-06-18T17:32:14.114Z,46.65
2023-06-18T17:34:41.365Z,46.43
2023-06-18T17:37:08.414Z,46.50
2023-06-18T17:39:35.354Z,46.71
2023-06-18T17:42:05.676Z,47.07
2023-06-18T17:44:33.131Z,47.64
2023-06-18T17:47:00.198Z,47.75
2023-06-18T17:49:27.636Z,48.04
2023-06-18T17:51:54.680Z,48.16
2023-06-18T17:54:21.973Z,48.10
2023-06-18T17:56:49.937Z,48.14
2023-06-18T17:59:17.251Z,48.58
2023-06-18T18:01:44.700Z,48.82
2023-06-18T18:04:12.564Z,49.14
2023-06-18T18:06:39.859Z,49.40
2023-06-18T18:09:07.266Z,49.37
2023-06-18T18:11:34.447Z,49.84
2023-06-18T18:14:01.673Z,50.29
2023-06-18T18:16:28.962Z,50.52
2023-06-18T18:18:57.873Z,50.72
2023-06-18T18:21:25.299Z,50.92
2023-06-18T18:23:52.998Z,51.25
2023-06-18T18:26:24.061Z,51.32
2023-06-18T18:28:56.530Z,51.00
2023-06-18T18:31:23.487Z,51.24
2023-06-18T18:33:50.585Z,51.29
2023-06-18T18:36:18.028Z,51.49
2023-06-18T18:38:45.374Z,51.26
2023-06-18T18:41:12.993Z,51.45
2023-06-18T18:43:40.401Z,51.45
2023-06-18T18:46:07.926Z,51.47
2023-06-18T18:48:35.149Z,51.32
2023-06-18T18:51:02.538Z,51.40
2023-06-18T18:53:29.652Z,51.56
2023-06-18T18:55:59.876Z,51.62
2023-06-18T18:58:30.457Z,51.71
2023-06-18T19:00:59.611Z,51.93
2023-06-18T19:03:27.593Z,51.98
2023-06-18T19:05:55.488Z,52.14
2023-06-18T19:08:23.247Z,52.20
2023-06-18T19:10:50.638Z,52.33
2023-06-18T19:13:18.048Z,52.61
2023-06-18T19:15:46.116Z,52.64
2023-06-18T19:18:13.622Z,52.81
2023-06-18T19:20:40.933Z,52.83
2023-06-18T19:23:07.923Z,52.79
2023-06-18T19:25:34.966Z,53.06
2023-06-18T19:28:02.420Z,53.23
2023-06-18T19:30:29.455Z,53.50
2023-06-18T19:32:56.856Z,53.54
2023-06-18T19:35:24.813Z,53.78
2023-06-18T19:37:52.023Z,53.94
2023-06-18T19:40:19.278Z,54.10
2023-06-18T19:42:49.613Z,54.33
2023-06-18T19:45:16.968Z,54.43
2023-06-18T19:47:45.184Z,54.62
2023-06-18T19:50:12.524Z,54.82
2023-06-18T19:52:39.935Z,55.01
2023-06-18T19:55:08.001Z,55.18
2023-06-18T19:57:34.971Z,55.31
2023-06-18T20:00:02.022Z,55.34
2023-06-18T20:02:29.185Z,55.26
2023-06-18T20:04:57.528Z,55.49
2023-06-18T20:07:24.539Z,55.47
2023-06-18T20:09:51.612Z,55.34
2023-06-18T20:12:19.493Z,55.47
2023-06-18T20:14:47.035Z,55.43
2023-06-18T20:17:13.974Z,55.84
2023-06-18T20:19:42.215Z,55.92
2023-06-18T20:22:10.692Z,55.56
2023-06-18T20:24:40.793Z,55.48
2023-06-18T20:27:08.661Z,55.71
2023-06-18T20:29:35.857Z,55.83
2023-06-18T20:32:03.270Z,55.85
2023-06-18T20:34:30.459Z,55.90
2023-06-18T20:36:57.659Z,56.01
2023-06-18T20:39:25.078Z,56.11
2023-06-18T20:41:52.372Z,56.11
2023-06-18T20:44:19.767Z,56.27
2023-06-18T20:46:46.821Z,56.33
2023-06-18T20:49:15.528Z,56.55
2023-06-18T20:51:43.413Z,56.55
2023-06-18T20:54:10.823Z,56.69
2023-06-18T20:56:38.400Z,56.86
2023-06-18T20:59:05.616Z,57.32
2023-06-18T21:01:32.991Z,58.06
2023-06-18T21:04:00.376Z,58.84
2023-06-18T21:06:27.676Z,59.24
2023-06-18T21:08:55.255Z,59.96
2023-06-18T21:11:23.535Z,60.55
2023-06-18T21:13:51.009Z,61.20
2023-06-18T21:16:18.363Z,61.77
2023-06-18T21:18:45.519Z,64.87
2023-06-18T21:21:12.821Z,68.05
2023-06-18T21:23:39.768Z,66.68
2023-06-18T21:26:06.806Z,64.23
2023-06-18T21:28:33.866Z,62.11
2023-06-18T21:31:01.732Z,58.21
2023-06-18T21:33:29.203Z,55.61
2023-06-18T21:35:56.419Z,54.75
2023-06-18T21:38:23.823Z,55.75
2023-06-18T21:40:51.846Z,56.93
2023-06-18T21:43:18.786Z,57.92
2023-06-18T21:45:47.299Z,58.78
2023-06-18T21:48:15.531Z,59.77
2023-06-18T21:50:42.477Z,60.73
2023-06-18T21:53:09.525Z,63.95
2023-06-18T21:55:36.575Z,67.17
2023-06-18T21:58:03.913Z,66.13
2023-06-18T22:00:31.327Z,64.40
2023-06-18T22:02:58.544Z,63.05
2023-06-18T22:05:26.131Z,61.60
2023-06-18T22:07:53.495Z,58.63
2023-06-18T22:10:20.992Z,56.58
2023-06-18T22:12:48.608Z,56.75
2023-06-18T22:15:15.596Z,57.50
2023-06-18T22:17:42.666Z,58.39
2023-06-18T22:20:10.963Z,59.23
2023-06-18T22:22:38.218Z,60.01
2023-06-18T22:25:06.439Z,60.78
2023-06-18T22:27:33.584Z,61.36
2023-06-18T22:30:01.075Z,64.50
2023-06-18T22:32:28.303Z,67.10
2023-06-18T22:34:55.493Z,65.83
2023-06-18T22:37:22.955Z,64.31
2023-06-18T22:39:50.218Z,62.51
2023-06-18T22:42:17.740Z,61.22
2023-06-18T22:44:44.761Z,58.64
2023-06-18T22:47:12.103Z,57.26
2023-06-18T22:49:39.490Z,57.96
2023-06-18T22:52:07.223Z,58.81
2023-06-18T22:54:34.539Z,59.71
2023-06-18T22:57:01.626Z,60.42
2023-06-18T22:59:28.558Z,61.16
2023-06-18T23:01:56.372Z,64.42
2023-06-18T23:04:23.823Z,67.37
2023-06-18T23:06:51.171Z,66.32
2023-06-18T23:09:18.678Z,64.74
2023-06-18T23:11:46.291Z,63.30
2023-06-18T23:14:14.945Z,62.13
2023-06-18T23:16:42.914Z,61.05
2023-06-18T23:19:10.247Z,58.49
2023-06-18T23:21:46.819Z,57.10
2023-06-18T23:24:16.113Z,57.76
2023-06-18T23:26:43.813Z,58.96
2023-06-18T23:29:11.304Z,60.47
2023-06-18T23:31:40.009Z,63.77
2023-06-18T23:34:08.531Z,66.49
2023-06-18T23:36:36.967Z,65.57
2023-06-18T23:39:05.425Z,63.95
2023-06-18T23:41:32.632Z,62.70
2023-06-18T23:43:59.753Z,62.24
2023-06-18T23:46:27.201Z,61.70
2023-06-18T23:48:54.286Z,60.97
2023-06-18T23:51:22.114Z,60.44
2023-06-18T23:53:49.359Z,58.03
2023-06-18T23:56:16.715Z,56.73
2023-06-18T23:58:43.651Z,57.31
